createdAt,value
2023-01-06T00:04:35.176Z,2.83
2023-01-06T00:09:39.460Z,2.17
2023-01-06T00:14:45.057Z,2.90
2023-01-06T00:19:47.960Z,2.40
2023-01-06T00:24:52.169Z,2.23
2023-01-06T00:29:55.228Z,1.93
2023-01-06T00:34:58.148Z,1.90
2023-01-06T00:40:03.711Z,1.97
2023-01-06T00:45:07.237Z,1.30
2023-01-06T00:50:13.639Z,1.30
2023-01-06T00:55:18.067Z,1.93
2023-01-06T01:00:21.270Z,1.90
2023-01-06T01:05:24.271Z,1.57
2023-01-06T01:10:28.511Z,1.20
2023-01-06T01:15:32.190Z,1.50
2023-01-06T01:20:35.499Z,1.30
2023-01-06T01:25:40.613Z,1.27
2023-01-06T01:30:43.584Z,2.10
2023-01-06T01:35:46.661Z,1.33
2023-01-06T01:40:51.358Z,1.07
2023-01-06T01:45:55.436Z,1.40
2023-01-06T01:50:59.800Z,1.43
2023-01-06T01:56:07.534Z,1.23
2023-01-06T02:01:11.508Z,1.57
2023-01-06T02:06:16.929Z,1.53
2023-01-06T02:11:21.929Z,2.20
2023-01-06T02:16:31.913Z,2.03
2023-01-06T02:21:49.002Z,2.90
2023-01-06T02:27:09.882Z,4.20
2023-01-06T02:32:40.087Z,2.93
2023-01-06T02:37:48.734Z,2.43
2023-01-06T02:43:02.128Z,2.93
2023-01-06T02:48:11.577Z,3.27
2023-01-06T02:53:21.460Z,2.63
2023-01-06T02:58:32.741Z,2.27
2023-01-06T03:03:39.607Z,2.73
2023-01-06T03:08:45.360Z,2.20
2023-01-06T03:13:51.417Z,1.60
2023-01-06T03:18:56.927Z,1.80
2023-01-06T03:24:02.332Z,2.27
2023-01-06T03:29:07.692Z,2.90
2023-01-06T03:34:16.148Z,1.90
2023-01-06T03:39:23.427Z,1.77
2023-01-06T03:44:32.441Z,1.67
2023-01-06T03:49:40.305Z,1.33
2023-01-06T03:54:47.372Z,1.37
2023-01-06T03:59:52.724Z,1.50
2023-01-06T04:05:09.448Z,1.23
2023-01-06T04:10:13.803Z,1.00
2023-01-06T04:15:18.442Z,1.27
2023-01-06T04:20:26.090Z,1.20
2023-01-06T04:25:34.676Z,1.70
2023-01-06T04:30:45.134Z,1.40
2023-01-06T04:35:49.753Z,1.30
2023-01-06T04:40:55.610Z,1.30
2023-01-06T04:45:59.131Z,1.20
2023-01-06T04:51:03.689Z,1.60
2023-01-06T04:56:07.699Z,1.60
2023-01-06T05:01:12.623Z,1.60
2023-01-06T05:06:17.735Z,1.97
2023-01-06T05:11:22.162Z,1.37
2023-01-06T05:16:27.108Z,2.10
2023-01-06T05:21:33.021Z,1.43
2023-01-06T05:26:36.030Z,1.50
2023-01-06T05:31:38.959Z,1.70
2023-01-06T05:36:43.312Z,1.30
2023-01-06T05:41:46.248Z,1.30
2023-01-06T05:46:49.078Z,1.07
2023-01-06T05:51:53.299Z,1.37
2023-01-06T05:56:56.206Z,1.20
2023-01-06T06:01:59.064Z,1.43
2023-01-06T06:07:03.368Z,1.30
2023-01-06T06:12:07.024Z,1.10
2023-01-06T06:17:09.964Z,1.67
2023-01-06T06:22:14.153Z,0.80
2023-01-06T06:27:16.950Z,1.27
2023-01-06T06:32:19.896Z,1.37
2023-01-06T06:37:24.439Z,1.47
2023-01-06T06:42:29.606Z,2.23
2023-01-06T06:47:35.776Z,2.83
2023-01-06T06:52:40.297Z,2.60
2023-01-06T06:57:43.508Z,2.10
2023-01-06T07:02:49.307Z,3.63
2023-01-06T07:07:54.201Z,4.50
2023-01-06T07:12:57.300Z,4.27
2023-01-06T07:18:02.199Z,2.23
2023-01-06T07:23:07.818Z,2.80
2023-01-06T07:28:13.814Z,2.63
2023-01-06T07:33:20.209Z,2.53
2023-01-06T07:38:25.064Z,2.23
2023-01-06T07:43:28.394Z,3.13
2023-01-06T07:48:31.361Z,2.00
2023-01-06T07:53:36.280Z,1.77
2023-01-06T07:58:39.213Z,1.40
2023-01-06T08:03:46.538Z,1.33
2023-01-06T08:08:52.466Z,1.77
2023-01-06T08:13:57.558Z,2.40
2023-01-06T08:19:03.759Z,3.03
2023-01-06T08:24:09.100Z,1.70
2023-01-06T08:29:12.131Z,1.87
2023-01-06T08:34:15.796Z,1.53
2023-01-06T08:39:20.457Z,1.50
2023-01-06T08:44:27.286Z,1.50
2023-01-06T08:49:30.276Z,1.77
2023-01-06T08:54:34.725Z,2.10
2023-01-06T08:59:38.292Z,1.27
2023-01-06T09:04:43.332Z,1.40
2023-01-06T09:09:47.897Z,0.93
2023-01-06T09:14:50.890Z,1.30
2023-01-06T09:25:22.719Z,1.57
2023-01-06T09:30:28.507Z,1.47
2023-01-06T09:35:31.413Z,2.23
2023-01-06T09:40:44.767Z,1.33
2023-01-06T09:45:50.102Z,1.50
2023-01-06T09:50:56.163Z,1.63
2023-01-06T09:56:04.199Z,1.33
2023-01-06T10:01:10.291Z,2.07
2023-01-06T10:06:30.094Z,2.13
2023-01-06T10:11:40.792Z,1.40
2023-01-06T10:17:01.776Z,1.77
2023-01-06T10:22:10.296Z,1.73
2023-01-06T10:27:28.021Z,1.77
2023-01-06T10:32:33.777Z,3.07
2023-01-06T10:37:38.909Z,1.37
2023-01-06T10:42:59.993Z,1.43
2023-01-06T10:48:03.675Z,1.17
2023-01-06T10:53:06.616Z,2.03
2023-01-06T10:58:18.653Z,1.90
2023-01-06T11:03:33.451Z,1.57
2023-01-06T11:08:41.693Z,1.67
2023-01-06T11:13:50.848Z,1.10
2023-01-06T11:18:59.547Z,1.70
2023-01-06T11:24:17.119Z,1.50
2023-01-06T11:29:32.017Z,1.87
2023-01-06T11:34:35.357Z,1.27
2023-01-06T11:39:38.871Z,1.43
2023-01-06T11:44:49.123Z,1.47
2023-01-06T11:49:54.239Z,1.17
2023-01-06T11:55:04.456Z,1.87
2023-01-06T12:00:26.649Z,1.53
2023-01-06T12:05:37.088Z,2.40
2023-01-06T12:10:42.495Z,1.60
2023-01-06T12:15:50.231Z,1.50
2023-01-06T12:20:54.644Z,1.27
2023-01-06T12:26:03.380Z,3.17
2023-01-06T12:31:11.017Z,1.90
2023-01-06T12:36:20.623Z,1.53
2023-01-06T12:41:29.613Z,1.70
2023-01-06T12:47:01.636Z,1.20
2023-01-06T12:52:15.540Z,1.47
2023-01-06T12:57:27.724Z,3.30
2023-01-06T13:02:46.904Z,1.47
2023-01-06T13:08:16.875Z,2.43
2023-01-06T13:13:30.587Z,1.90
2023-01-06T13:18:38.594Z,1.90
2023-01-06T13:23:59.070Z,1.73
2023-01-06T13:29:08.818Z,4.70
2023-01-06T13:34:58.059Z,1.40
2023-01-06T13:40:04.652Z,1.40
2023-01-06T13:45:12.596Z,1.90
2023-01-06T13:50:17.987Z,1.60
2023-01-06T13:55:28.632Z,1.33
2023-01-06T14:00:31.685Z,1.33
2023-01-06T14:05:52.083Z,1.90
2023-01-06T14:11:05.028Z,1.30
2023-01-06T14:16:12.929Z,1.00
2023-01-06T14:21:23.812Z,1.33
2023-01-06T14:26:49.292Z,1.37
2023-01-06T14:32:45.923Z,3.03
2023-01-06T14:37:52.157Z,3.33
2023-01-06T14:43:02.812Z,1.10
2023-01-06T14:48:09.384Z,1.07
2023-01-06T14:53:19.631Z,1.70
2023-01-06T14:58:31.442Z,1.10
2023-01-06T15:03:35.063Z,1.13
2023-01-06T15:08:44.335Z,1.57
2023-01-06T15:13:54.247Z,2.83
2023-01-06T15:18:57.312Z,1.10
2023-01-06T15:24:00.375Z,1.47
2023-01-06T15:29:06.485Z,1.97
2023-01-06T15:34:12.639Z,2.40
2023-01-06T15:39:17.232Z,2.20
2023-01-06T15:44:43.966Z,4.43
2023-01-06T15:49:51.511Z,2.20
2023-01-06T15:54:55.247Z,2.17
2023-01-06T16:00:02.926Z,2.40
2023-01-06T16:05:28.491Z,1.83
2023-01-06T16:10:33.786Z,0.73
2023-01-06T16:15:46.495Z,0.97
2023-01-06T16:20:49.848Z,1.87
2023-01-06T16:26:06.923Z,1.20
2023-01-06T16:31:13.039Z,1.03
2023-01-06T16:36:19.838Z,1.20
2023-01-06T16:41:22.987Z,2.10
2023-01-06T16:46:28.240Z,2.47
2023-01-06T16:51:31.422Z,1.87
2023-01-06T16:56:37.401Z,1.80
2023-01-06T17:01:42.343Z,2.20
2023-01-06T17:06:49.419Z,2.77
2023-01-06T17:11:54.204Z,2.13
2023-01-06T17:16:59.955Z,2.07
2023-01-06T17:22:08.045Z,1.83
2023-01-06T17:27:21.995Z,2.33
2023-01-06T17:32:34.035Z,1.67
2023-01-06T17:37:39.518Z,1.47
2023-01-06T17:42:43.962Z,2.00
2023-01-06T17:47:51.102Z,1.37
2023-01-06T17:53:31.410Z,1.30
2023-01-06T17:58:36.913Z,1.97
2023-01-06T18:03:43.786Z,1.40
2023-01-06T18:08:46.982Z,2.63
2023-01-06T18:13:51.781Z,1.80
2023-01-06T18:18:58.484Z,1.23
2023-01-06T18:24:12.627Z,1.67
2023-01-06T18:29:18.606Z,2.13
2023-01-06T18:34:29.147Z,2.63
2023-01-06T18:39:37.729Z,2.43
2023-01-06T18:44:40.654Z,1.60
2023-01-06T18:49:45.094Z,2.67
2023-01-06T18:54:51.015Z,3.80
2023-01-06T18:59:56.143Z,2.27
2023-01-06T19:05:01.242Z,2.30
2023-01-06T19:10:07.737Z,2.00
2023-01-06T19:15:22.473Z,2.57
2023-01-06T19:20:29.191Z,15.63
2023-01-06T19:25:34.357Z,6.13
2023-01-06T19:30:43.246Z,4.37
2023-01-06T19:35:47.658Z,3.47
2023-01-06T19:40:53.853Z,4.03
2023-01-06T19:45:57.045Z,3.80
2023-01-06T19:51:09.713Z,5.23
2023-01-06T19:56:18.778Z,7.87
2023-01-06T20:01:22.934Z,7.00
2023-01-06T20:06:27.394Z,6.27
2023-01-06T20:11:30.368Z,7.00
2023-01-06T20:16:33.346Z,7.33
2023-01-06T20:27:09.010Z,8.30
2023-01-06T20:32:12.840Z,10.47
2023-01-06T20:37:20.245Z,9.53
2023-01-06T20:42:25.006Z,9.53
2023-01-06T20:47:29.313Z,8.60
2023-01-06T20:52:35.395Z,9.80
2023-01-06T20:57:40.161Z,9.77
2023-01-06T21:02:44.847Z,8.83
2023-01-06T21:07:49.915Z,7.93
2023-01-06T21:12:55.727Z,8.10
2023-01-06T21:17:58.632Z,8.27
2023-01-06T21:23:02.899Z,9.13
2023-01-06T21:28:06.122Z,7.23
2023-01-06T21:33:08.955Z,6.27
2023-01-06T21:38:13.398Z,6.37
2023-01-06T21:43:16.506Z,4.50
2023-01-06T21:48:21.616Z,4.30
2023-01-06T21:53:26.922Z,6.17
2023-01-06T21:58:30.297Z,4.10
2023-01-06T22:03:33.289Z,6.00
2023-01-06T22:08:37.765Z,3.97
2023-01-06T22:13:45.598Z,5.50
2023-01-06T22:18:48.628Z,4.53
2023-01-06T22:23:54.210Z,4.97
2023-01-06T22:28:58.488Z,5.07
2023-01-06T22:34:01.868Z,3.07
2023-01-06T22:39:07.061Z,4.17
2023-01-06T22:44:10.162Z,4.07
2023-01-06T22:49:13.131Z,5.17
2023-01-06T22:54:17.615Z,6.50
2023-01-06T22:59:20.518Z,4.97
2023-01-06T23:04:23.533Z,6.13
2023-01-06T23:09:27.975Z,6.67
2023-01-06T23:14:36.126Z,7.60
2023-01-06T23:19:39.053Z,6.27
2023-01-06T23:24:43.403Z,5.23
2023-01-06T23:29:46.561Z,5.43
2023-01-06T23:34:49.460Z,6.63
2023-01-06T23:39:54.355Z,6.23
2023-01-06T23:44:57.211Z,6.30
2023-01-06T23:50:00.096Z,6.50
2023-01-06T23:55:04.464Z,5.87
